sensor_id;sensor_type;location;lat;lon;timestamp;P1;durP1;ratioP1;P2;durP2;ratioP2
19929;SDS011;10127;47.780;9.606;2023-07-20T00:01:06;737.65;;;685.80;;
19929;SDS011;10127;47.780;9.606;2023-07-20T00:03:32;744.97;;;689.80;;
19929;SDS011;10127;47.780;9.606;2023-07-20T00:05:57;702.13;;;650.60;;
19929;SDS011;10127;47.780;9.606;2023-07-20T00:08:23;685.13;;;634.88;;
19929;SDS011;10127;47.780;9.606;2023-07-20T00:10:49;539.92;;;501.85;;
19929;SDS011;10127;47.780;9.606;2023-07-20T00:13:15;458.38;;;424.50;;
19929;SDS011;10127;47.780;9.606;2023-07-20T00:15:44;611.40;;;564.17;;
19929;SDS011;10127;47.780;9.606;2023-07-20T00:18:09;638.38;;;588.45;;
19929;SDS011;10127;47.780;9.606;2023-07-20T00:20:35;581.53;;;537.42;;
19929;SDS011;10127;47.780;9.606;2023-07-20T00:23:01;510.00;;;470.83;;
19929;SDS011;10127;47.780;9.606;2023-07-20T00:25:26;640.63;;;589.80;;
19929;SDS011;10127;47.780;9.606;2023-07-20T00:27:52;629.05;;;578.03;;
19929;SDS011;10127;47.780;9.606;2023-07-20T00:30:18;605.88;;;559.60;;
19929;SDS011;10127;47.780;9.606;2023-07-20T00:32:44;571.45;;;527.53;;
19929;SDS011;10127;47.780;9.606;2023-07-20T00:35:10;620.95;;;573.13;;
19929;SDS011;10127;47.780;9.606;2023-07-20T00:37:36;532.17;;;490.88;;
19929;SDS011;10127;47.780;9.606;2023-07-20T00:40:02;693.10;;;636.22;;
19929;SDS011;10127;47.780;9.606;2023-07-20T00:42:32;541.33;;;499.52;;
19929;SDS011;10127;47.780;9.606;2023-07-20T00:44:58;489.85;;;450.90;;
19929;SDS011;10127;47.780;9.606;2023-07-20T00:47:24;473.58;;;435.95;;
19929;SDS011;10127;47.780;9.606;2023-07-20T00:49:50;460.77;;;421.05;;
19929;SDS011;10127;47.780;9.606;2023-07-20T00:52:16;513.50;;;467.52;;
19929;SDS011;10127;47.780;9.606;2023-07-20T00:54:45;751.03;;;679.20;;
19929;SDS011;10127;47.780;9.606;2023-07-20T00:57:12;615.47;;;559.40;;
19929;SDS011;10127;47.780;9.606;2023-07-20T00:59:39;461.67;;;421.70;;
19929;SDS011;10127;47.780;9.606;2023-07-20T01:02:05;894.08;;;797.50;;
19929;SDS011;10127;47.780;9.606;2023-07-20T01:04:31;696.50;;;632.10;;
19929;SDS011;10127;47.780;9.606;2023-07-20T01:06:59;606.67;;;551.40;;
19929;SDS011;10127;47.780;9.606;2023-07-20T01:09:44;798.05;;;720.65;;
19929;SDS011;10127;47.780;9.606;2023-07-20T01:14:58;624.80;;;579.15;;
19929;SDS011;10127;47.780;9.606;2023-07-20T01:17:24;654.78;;;606.85;;
19929;SDS011;10127;47.780;9.606;2023-07-20T01:19:50;710.17;;;655.75;;
19929;SDS011;10127;47.780;9.606;2023-07-20T01:25:22;769.08;;;712.95;;
19929;SDS011;10127;47.780;9.606;2023-07-20T01:30:45;880.35;;;809.90;;
19929;SDS011;10127;47.780;9.606;2023-07-20T01:33:14;568.45;;;527.60;;
19929;SDS011;10127;47.780;9.606;2023-07-20T01:35:42;318.63;;;297.90;;
19929;SDS011;10127;47.780;9.606;2023-07-20T01:38:10;411.80;;;386.55;;
19929;SDS011;10127;47.780;9.606;2023-07-20T01:40:38;367.83;;;344.67;;
19929;SDS011;10127;47.780;9.606;2023-07-20T01:43:04;480.90;;;450.08;;
19929;SDS011;10127;47.780;9.606;2023-07-20T01:45:30;557.03;;;519.90;;
19929;SDS011;10127;47.780;9.606;2023-07-20T01:47:56;556.83;;;521.20;;
19929;SDS011;10127;47.780;9.606;2023-07-20T01:50:22;745.63;;;694.20;;
19929;SDS011;10127;47.780;9.606;2023-07-20T01:52:47;832.60;;;770.40;;
19929;SDS011;10127;47.780;9.606;2023-07-20T01:55:13;787.15;;;730.47;;
19929;SDS011;10127;47.780;9.606;2023-07-20T01:57:39;780.95;;;723.40;;
19929;SDS011;10127;47.780;9.606;2023-07-20T02:00:05;664.25;;;618.90;;
19929;SDS011;10127;47.780;9.606;2023-07-20T02:02:40;678.33;;;630.90;;
19929;SDS011;10127;47.780;9.606;2023-07-20T02:05:07;689.28;;;641.33;;
19929;SDS011;10127;47.780;9.606;2023-07-20T02:07:33;703.67;;;653.70;;
19929;SDS011;10127;47.780;9.606;2023-07-20T02:09:58;676.90;;;628.95;;
19929;SDS011;10127;47.780;9.606;2023-07-20T02:12:24;702.35;;;654.45;;
19929;SDS011;10127;47.780;9.606;2023-07-20T02:14:49;833.92;;;770.92;;
19929;SDS011;10127;47.780;9.606;2023-07-20T02:17:21;510.50;;;477.33;;
19929;SDS011;10127;47.780;9.606;2023-07-20T02:19:49;717.42;;;666.88;;
19929;SDS011;10127;47.780;9.606;2023-07-20T02:22:17;733.58;;;678.22;;
19929;SDS011;10127;47.780;9.606;2023-07-20T02:24:43;826.10;;;760.92;;
19929;SDS011;10127;47.780;9.606;2023-07-20T02:27:08;818.20;;;755.28;;
19929;SDS011;10127;47.780;9.606;2023-07-20T02:29:34;476.45;;;444.75;;
19929;SDS011;10127;47.780;9.606;2023-07-20T02:32:00;769.33;;;709.97;;
19929;SDS011;10127;47.780;9.606;2023-07-20T02:34:26;719.15;;;666.67;;
19929;SDS011;10127;47.780;9.606;2023-07-20T02:36:52;650.55;;;603.88;;
19929;SDS011;10127;47.780;9.606;2023-07-20T02:39:18;782.13;;;722.75;;
19929;SDS011;10127;47.780;9.606;2023-07-20T02:41:43;746.50;;;690.55;;
19929;SDS011;10127;47.780;9.606;2023-07-20T02:44:09;739.72;;;685.55;;
19929;SDS011;10127;47.780;9.606;2023-07-20T02:46:34;395.05;;;370.38;;
19929;SDS011;10127;47.780;9.606;2023-07-20T02:49:00;382.05;;;357.73;;
19929;SDS011;10127;47.780;9.606;2023-07-20T02:51:26;582.60;;;543.25;;
19929;SDS011;10127;47.780;9.606;2023-07-20T02:53:51;585.25;;;544.20;;
19929;SDS011;10127;47.780;9.606;2023-07-20T02:56:17;633.40;;;588.60;;
19929;SDS011;10127;47.780;9.606;2023-07-20T02:58:43;494.77;;;460.92;;
19929;SDS011;10127;47.780;9.606;2023-07-20T03:01:09;582.38;;;542.03;;
19929;SDS011;10127;47.780;9.606;2023-07-20T03:03:36;595.38;;;554.63;;
19929;SDS011;10127;47.780;9.606;2023-07-20T03:06:04;374.40;;;349.50;;
19929;SDS011;10127;47.780;9.606;2023-07-20T03:08:36;711.70;;;659.42;;
19929;SDS011;10127;47.780;9.606;2023-07-20T03:11:02;608.97;;;566.55;;
19929;SDS011;10127;47.780;9.606;2023-07-20T03:13:34;691.33;;;640.40;;
19929;SDS011;10127;47.780;9.606;2023-07-20T03:16:00;588.65;;;547.25;;
19929;SDS011;10127;47.780;9.606;2023-07-20T03:18:25;443.35;;;413.23;;
19929;SDS011;10127;47.780;9.606;2023-07-20T03:20:51;603.10;;;559.55;;
19929;SDS011;10127;47.780;9.606;2023-07-20T03:23:17;617.33;;;572.08;;
19929;SDS011;10127;47.780;9.606;2023-07-20T03:25:42;411.95;;;384.65;;
19929;SDS011;10127;47.780;9.606;2023-07-20T03:28:08;734.00;;;677.80;;
19929;SDS011;10127;47.780;9.606;2023-07-20T03:30:34;366.33;;;340.85;;
19929;SDS011;10127;47.780;9.606;2023-07-20T03:33:00;346.42;;;319.60;;
19929;SDS011;10127;47.780;9.606;2023-07-20T03:35:25;533.90;;;494.83;;
19929;SDS011;10127;47.780;9.606;2023-07-20T03:37:51;389.45;;;359.08;;
19929;SDS011;10127;47.780;9.606;2023-07-20T03:40:17;395.92;;;366.90;;
19929;SDS011;10127;47.780;9.606;2023-07-20T03:42:42;295.75;;;274.25;;
19929;SDS011;10127;47.780;9.606;2023-07-20T03:45:08;307.60;;;286.13;;
19929;SDS011;10127;47.780;9.606;2023-07-20T03:47:34;493.98;;;457.40;;
19929;SDS011;10127;47.780;9.606;2023-07-20T03:49:59;649.50;;;603.10;;
19929;SDS011;10127;47.780;9.606;2023-07-20T03:52:25;724.65;;;669.50;;
19929;SDS011;10127;47.780;9.606;2023-07-20T03:54:51;772.00;;;710.67;;
19929;SDS011;10127;47.780;9.606;2023-07-20T03:57:16;784.65;;;723.10;;
19929;SDS011;10127;47.780;9.606;2023-07-20T03:59:44;588.97;;;543.28;;
19929;SDS011;10127;47.780;9.606;2023-07-20T04:02:11;589.63;;;544.92;;
19929;SDS011;10127;47.780;9.606;2023-07-20T04:04:36;693.65;;;639.40;;
19929;SDS011;10127;47.780;9.606;2023-07-20T04:07:02;700.55;;;645.28;;
19929;SDS011;10127;47.780;9.606;2023-07-20T04:09:28;669.30;;;617.22;;
19929;SDS011;10127;47.780;9.606;2023-07-20T04:11:54;741.75;;;683.45;;
19929;SDS011;10127;47.780;9.606;2023-07-20T04:14:20;621.08;;;576.67;;
19929;SDS011;10127;47.780;9.606;2023-07-20T04:16:46;756.65;;;695.97;;
19929;SDS011;10127;47.780;9.606;2023-07-20T04:19:12;328.65;;;306.33;;
19929;SDS011;10127;47.780;9.606;2023-07-20T04:21:41;697.60;;;643.65;;
19929;SDS011;10127;47.780;9.606;2023-07-20T04:24:07;532.67;;;491.10;;
19929;SDS011;10127;47.780;9.606;2023-07-20T04:26:32;486.08;;;448.40;;
19929;SDS011;10127;47.780;9.606;2023-07-20T04:28:58;654.15;;;604.00;;
19929;SDS011;10127;47.780;9.606;2023-07-20T04:31:24;643.58;;;595.28;;
19929;SDS011;10127;47.780;9.606;2023-07-20T04:33:50;871.90;;;799.55;;
19929;SDS011;10127;47.780;9.606;2023-07-20T04:36:16;658.65;;;607.63;;
19929;SDS011;10127;47.780;9.606;2023-07-20T04:38:44;616.35;;;568.38;;
19929;SDS011;10127;47.780;9.606;2023-07-20T04:41:10;880.55;;;807.35;;
19929;SDS011;10127;47.780;9.606;2023-07-20T04:43:40;1021.13;;;925.90;;
19929;SDS011;10127;47.780;9.606;2023-07-20T04:46:06;922.28;;;842.53;;
19929;SDS011;10127;47.780;9.606;2023-07-20T04:48:32;960.65;;;877.75;;
19929;SDS011;10127;47.780;9.606;2023-07-20T04:50:57;743.17;;;683.13;;
19929;SDS011;10127;47.780;9.606;2023-07-20T04:53:23;875.47;;;804.85;;
19929;SDS011;10127;47.780;9.606;2023-07-20T04:55:49;940.95;;;860.45;;
19929;SDS011;10127;47.780;9.606;2023-07-20T04:58:19;1036.32;;;941.38;;
19929;SDS011;10127;47.780;9.606;2023-07-20T05:00:50;837.22;;;768.08;;
19929;SDS011;10127;47.780;9.606;2023-07-20T05:03:16;651.72;;;604.58;;
19929;SDS011;10127;47.780;9.606;2023-07-20T05:05:41;950.08;;;871.17;;
19929;SDS011;10127;47.780;9.606;2023-07-20T05:08:07;694.38;;;642.78;;
19929;SDS011;10127;47.780;9.606;2023-07-20T05:10:33;937.00;;;858.40;;
19929;SDS011;10127;47.780;9.606;2023-07-20T05:12:59;812.70;;;746.85;;
19929;SDS011;10127;47.780;9.606;2023-07-20T05:15:25;967.78;;;881.53;;
19929;SDS011;10127;47.780;9.606;2023-07-20T05:17:50;925.15;;;842.60;;
19929;SDS011;10127;47.780;9.606;2023-07-20T05:20:16;668.58;;;619.92;;
19929;SDS011;10127;47.780;9.606;2023-07-20T05:22:49;832.97;;;759.85;;
19929;SDS011;10127;47.780;9.606;2023-07-20T05:25:15;474.90;;;438.52;;
19929;SDS011;10127;47.780;9.606;2023-07-20T05:27:43;707.03;;;652.03;;
19929;SDS011;10127;47.780;9.606;2023-07-20T05:30:10;399.45;;;369.88;;
19929;SDS011;10127;47.780;9.606;2023-07-20T05:32:42;887.50;;;813.63;;
19929;SDS011;10127;47.780;9.606;2023-07-20T05:35:17;895.72;;;820.78;;
19929;SDS011;10127;47.780;9.606;2023-07-20T05:37:43;863.45;;;792.58;;
19929;SDS011;10127;47.780;9.606;2023-07-20T05:40:10;621.78;;;576.25;;
19929;SDS011;10127;47.780;9.606;2023-07-20T05:42:37;1008.55;;;918.88;;
19929;SDS011;10127;47.780;9.606;2023-07-20T05:45:06;746.65;;;687.40;;
19929;SDS011;10127;47.780;9.606;2023-07-20T05:47:32;778.85;;;717.40;;
19929;SDS011;10127;47.780;9.606;2023-07-20T05:49:58;929.90;;;850.67;;
19929;SDS011;10127;47.780;9.606;2023-07-20T05:52:24;923.72;;;844.95;;
19929;SDS011;10127;47.780;9.606;2023-07-20T05:54:49;837.75;;;768.83;;
19929;SDS011;10127;47.780;9.606;2023-07-20T05:57:15;1062.82;;;962.63;;
19929;SDS011;10127;47.780;9.606;2023-07-20T05:59:40;1054.28;;;955.08;;
19929;SDS011;10127;47.780;9.606;2023-07-20T06:02:09;948.20;;;868.38;;
19929;SDS011;10127;47.780;9.606;2023-07-20T06:04:36;943.08;;;865.17;;
19929;SDS011;10127;47.780;9.606;2023-07-20T06:07:01;874.45;;;802.53;;
19929;SDS011;10127;47.780;9.606;2023-07-20T06:09:27;994.33;;;909.85;;
19929;SDS011;10127;47.780;9.606;2023-07-20T06:11:54;883.10;;;811.55;;
19929;SDS011;10127;47.780;9.606;2023-07-20T06:14:19;991.40;;;905.22;;
19929;SDS011;10127;47.780;9.606;2023-07-20T06:16:45;886.22;;;814.35;;
19929;SDS011;10127;47.780;9.606;2023-07-20T06:19:11;933.80;;;857.72;;
19929;SDS011;10127;47.780;9.606;2023-07-20T06:21:37;845.25;;;777.60;;
19929;SDS011;10127;47.780;9.606;2023-07-20T06:24:03;771.28;;;705.03;;
19929;SDS011;10127;47.780;9.606;2023-07-20T06:26:28;750.83;;;687.15;;
19929;SDS011;10127;47.780;9.606;2023-07-20T06:28:55;668.10;;;615.40;;
19929;SDS011;10127;47.780;9.606;2023-07-20T06:31:21;770.22;;;712.95;;
19929;SDS011;10127;47.780;9.606;2023-07-20T06:33:47;794.53;;;734.08;;
19929;SDS011;10127;47.780;9.606;2023-07-20T06:36:12;724.00;;;667.10;;
19929;SDS011;10127;47.780;9.606;2023-07-20T06:38:38;706.65;;;652.45;;
19929;SDS011;10127;47.780;9.606;2023-07-20T06:41:04;797.75;;;735.67;;
19929;SDS011;10127;47.780;9.606;2023-07-20T06:43:29;612.88;;;566.53;;
19929;SDS011;10127;47.780;9.606;2023-07-20T06:45:55;680.28;;;628.45;;
19929;SDS011;10127;47.780;9.606;2023-07-20T06:48:21;639.75;;;591.63;;
19929;SDS011;10127;47.780;9.606;2023-07-20T06:50:46;628.88;;;582.10;;
19929;SDS011;10127;47.780;9.606;2023-07-20T06:53:12;616.38;;;570.20;;
19929;SDS011;10127;47.780;9.606;2023-07-20T06:55:38;606.10;;;557.85;;
19929;SDS011;10127;47.780;9.606;2023-07-20T06:58:04;845.42;;;776.90;;
19929;SDS011;10127;47.780;9.606;2023-07-20T07:00:30;699.70;;;644.53;;
19929;SDS011;10127;47.780;9.606;2023-07-20T07:02:55;772.10;;;707.40;;
19929;SDS011;10127;47.780;9.606;2023-07-20T07:05:21;694.30;;;639.10;;
19929;SDS011;10127;47.780;9.606;2023-07-20T07:07:47;647.65;;;596.88;;
19929;SDS011;10127;47.780;9.606;2023-07-20T07:10:13;752.85;;;695.03;;
19929;SDS011;10127;47.780;9.606;2023-07-20T07:12:38;711.25;;;657.80;;
19929;SDS011;10127;47.780;9.606;2023-07-20T07:15:04;761.35;;;704.90;;
19929;SDS011;10127;47.780;9.606;2023-07-20T07:17:32;708.35;;;653.03;;
19929;SDS011;10127;47.780;9.606;2023-07-20T07:19:58;732.97;;;677.47;;
19929;SDS011;10127;47.780;9.606;2023-07-20T07:22:24;802.70;;;742.55;;
19929;SDS011;10127;47.780;9.606;2023-07-20T07:24:50;777.70;;;717.60;;
19929;SDS011;10127;47.780;9.606;2023-07-20T07:27:16;637.15;;;588.85;;
19929;SDS011;10127;47.780;9.606;2023-07-20T07:29:42;673.75;;;621.60;;
19929;SDS011;10127;47.780;9.606;2023-07-20T07:32:11;644.40;;;591.22;;
19929;SDS011;10127;47.780;9.606;2023-07-20T07:34:37;610.30;;;563.42;;
19929;SDS011;10127;47.780;9.606;2023-07-20T07:37:03;769.80;;;711.92;;
19929;SDS011;10127;47.780;9.606;2023-07-20T07:39:30;781.72;;;720.60;;
19929;SDS011;10127;47.780;9.606;2023-07-20T07:41:56;700.33;;;647.78;;
19929;SDS011;10127;47.780;9.606;2023-07-20T07:44:22;742.47;;;685.58;;
19929;SDS011;10127;47.780;9.606;2023-07-20T07:46:48;677.63;;;625.08;;
19929;SDS011;10127;47.780;9.606;2023-07-20T07:49:14;665.25;;;615.50;;
19929;SDS011;10127;47.780;9.606;2023-07-20T07:51:40;756.17;;;698.53;;
19929;SDS011;10127;47.780;9.606;2023-07-20T07:54:05;730.30;;;674.40;;
19929;SDS011;10127;47.780;9.606;2023-07-20T07:56:31;709.85;;;654.67;;
19929;SDS011;10127;47.780;9.606;2023-07-20T07:58:57;667.97;;;617.30;;
19929;SDS011;10127;47.780;9.606;2023-07-20T08:01:22;779.53;;;716.78;;
19929;SDS011;10127;47.780;9.606;2023-07-20T08:03:48;776.40;;;714.83;;
19929;SDS011;10127;47.780;9.606;2023-07-20T08:06:14;742.88;;;685.67;;
19929;SDS011;10127;47.780;9.606;2023-07-20T08:08:40;774.63;;;715.35;;
19929;SDS011;10127;47.780;9.606;2023-07-20T08:11:05;727.33;;;668.67;;
19929;SDS011;10127;47.780;9.606;2023-07-20T08:13:31;715.40;;;658.70;;
19929;SDS011;10127;47.780;9.606;2023-07-20T08:15:57;713.10;;;657.88;;
19929;SDS011;10127;47.780;9.606;2023-07-20T08:18:23;772.50;;;711.85;;
19929;SDS011;10127;47.780;9.606;2023-07-20T08:20:49;741.72;;;683.13;;
19929;SDS011;10127;47.780;9.606;2023-07-20T08:23:14;600.53;;;543.37;;
19929;SDS011;10127;47.780;9.606;2023-07-20T08:25:40;776.58;;;716.00;;
19929;SDS011;10127;47.780;9.606;2023-07-20T08:28:15;801.95;;;737.17;;
19929;SDS011;10127;47.780;9.606;2023-07-20T08:33:08;802.72;;;740.25;;
19929;SDS011;10127;47.780;9.606;2023-07-20T08:35:35;787.45;;;727.72;;
19929;SDS011;10127;47.780;9.606;2023-07-20T08:38:01;806.92;;;743.95;;
19929;SDS011;10127;47.780;9.606;2023-07-20T08:40:27;822.92;;;759.15;;
19929;SDS011;10127;47.780;9.606;2023-07-20T08:42:53;731.33;;;674.92;;
19929;SDS011;10127;47.780;9.606;2023-07-20T08:45:21;576.45;;;534.10;;
19929;SDS011;10127;47.780;9.606;2023-07-20T08:47:48;785.10;;;726.78;;
19929;SDS011;10127;47.780;9.606;2023-07-20T08:50:14;673.30;;;620.83;;
19929;SDS011;10127;47.780;9.606;2023-07-20T08:52:41;802.47;;;741.40;;
19929;SDS011;10127;47.780;9.606;2023-07-20T08:55:07;710.33;;;654.80;;
19929;SDS011;10127;47.780;9.606;2023-07-20T08:57:33;810.45;;;748.15;;
19929;SDS011;10127;47.780;9.606;2023-07-20T09:00:01;810.40;;;746.97;;
19929;SDS011;10127;47.780;9.606;2023-07-20T09:02:30;708.22;;;653.20;;
19929;SDS011;10127;47.780;9.606;2023-07-20T09:05:00;1044.78;;;949.88;;
19929;SDS011;10127;47.780;9.606;2023-07-20T09:07:26;657.55;;;596.08;;
19929;SDS011;10127;47.780;9.606;2023-07-20T09:09:52;650.90;;;593.85;;
19929;SDS011;10127;47.780;9.606;2023-07-20T09:12:17;568.92;;;519.65;;
19929;SDS011;10127;47.780;9.606;2023-07-20T09:14:43;665.72;;;604.63;;
19929;SDS011;10127;47.780;9.606;2023-07-20T09:17:12;644.30;;;593.92;;
19929;SDS011;10127;47.780;9.606;2023-07-20T09:19:45;501.25;;;455.33;;
19929;SDS011;10127;47.780;9.606;2023-07-20T09:22:11;704.17;;;648.88;;
19929;SDS011;10127;47.780;9.606;2023-07-20T09:24:36;611.15;;;558.03;;
19929;SDS011;10127;47.780;9.606;2023-07-20T09:27:02;659.15;;;603.50;;
19929;SDS011;10127;47.780;9.606;2023-07-20T09:29:29;604.55;;;547.72;;
19929;SDS011;10127;47.780;9.606;2023-07-20T09:32:02;618.17;;;566.70;;
19929;SDS011;10127;47.780;9.606;2023-07-20T09:34:30;615.63;;;556.95;;
19929;SDS011;10127;47.780;9.606;2023-07-20T09:36:57;617.40;;;559.50;;
19929;SDS011;10127;47.780;9.606;2023-07-20T09:39:23;1063.78;;;967.25;;
19929;SDS011;10127;47.780;9.606;2023-07-20T09:41:49;523.08;;;482.95;;
19929;SDS011;10127;47.780;9.606;2023-07-20T09:44:16;595.58;;;549.45;;
19929;SDS011;10127;47.780;9.606;2023-07-20T09:46:46;589.25;;;546.45;;
19929;SDS011;10127;47.780;9.606;2023-07-20T09:49:13;1099.03;;;996.72;;
19929;SDS011;10127;47.780;9.606;2023-07-20T09:51:39;670.58;;;618.78;;
19929;SDS011;10127;47.780;9.606;2023-07-20T09:54:06;468.92;;;436.27;;
19929;SDS011;10127;47.780;9.606;2023-07-20T09:56:32;501.05;;;462.83;;
19929;SDS011;10127;47.780;9.606;2023-07-20T09:58:58;646.05;;;591.17;;
19929;SDS011;10127;47.780;9.606;2023-07-20T10:01:24;587.58;;;546.05;;
19929;SDS011;10127;47.780;9.606;2023-07-20T10:03:53;576.25;;;534.55;;
19929;SDS011;10127;47.780;9.606;2023-07-20T10:06:23;588.58;;;544.65;;
19929;SDS011;10127;47.780;9.606;2023-07-20T10:08:52;625.03;;;576.92;;
19929;SDS011;10127;47.780;9.606;2023-07-20T10:11:21;577.97;;;535.13;;
19929;SDS011;10127;47.780;9.606;2023-07-20T10:13:51;653.47;;;605.22;;
19929;SDS011;10127;47.780;9.606;2023-07-20T10:16:29;493.25;;;451.80;;
19929;SDS011;10127;47.780;9.606;2023-07-20T10:21:25;591.33;;;545.95;;
19929;SDS011;10127;47.780;9.606;2023-07-20T10:23:51;553.60;;;511.33;;
19929;SDS011;10127;47.780;9.606;2023-07-20T10:26:17;549.92;;;510.17;;
19929;SDS011;10127;47.780;9.606;2023-07-20T10:28:44;563.72;;;519.33;;
19929;SDS011;10127;47.780;9.606;2023-07-20T10:31:10;599.80;;;553.88;;
19929;SDS011;10127;47.780;9.606;2023-07-20T10:33:38;598.45;;;554.58;;
19929;SDS011;10127;47.780;9.606;2023-07-20T10:36:04;672.42;;;622.33;;
19929;SDS011;10127;47.780;9.606;2023-07-20T10:38:51;625.13;;;579.28;;
19929;SDS011;10127;47.780;9.606;2023-07-20T10:41:29;540.58;;;501.52;;
19929;SDS011;10127;47.780;9.606;2023-07-20T10:44:00;632.05;;;585.30;;
19929;SDS011;10127;47.780;9.606;2023-07-20T10:46:33;572.70;;;531.00;;
19929;SDS011;10127;47.780;9.606;2023-07-20T10:48:59;589.28;;;542.78;;
19929;SDS011;10127;47.780;9.606;2023-07-20T10:51:27;652.28;;;599.45;;
19929;SDS011;10127;47.780;9.606;2023-07-20T10:53:54;545.30;;;498.02;;
19929;SDS011;10127;47.780;9.606;2023-07-20T10:56:27;554.92;;;506.00;;
19929;SDS011;10127;47.780;9.606;2023-07-20T10:59:00;506.45;;;463.88;;
19929;SDS011;10127;47.780;9.606;2023-07-20T11:01:28;557.10;;;509.15;;
19929;SDS011;10127;47.780;9.606;2023-07-20T11:03:58;588.22;;;534.78;;
19929;SDS011;10127;47.780;9.606;2023-07-20T11:11:39;597.65;;;544.58;;
19929;SDS011;10127;47.780;9.606;2023-07-20T11:14:27;516.75;;;470.73;;
19929;SDS011;10127;47.780;9.606;2023-07-20T11:17:10;574.67;;;524.53;;
19929;SDS011;10127;47.780;9.606;2023-07-20T11:19:37;569.30;;;520.42;;
19929;SDS011;10127;47.780;9.606;2023-07-20T11:22:05;582.00;;;538.92;;
19929;SDS011;10127;47.780;9.606;2023-07-20T11:24:34;627.75;;;580.25;;
19929;SDS011;10127;47.780;9.606;2023-07-20T11:27:04;614.38;;;570.15;;
19929;SDS011;10127;47.780;9.606;2023-07-20T11:29:30;1053.85;;;962.35;;
19929;SDS011;10127;47.780;9.606;2023-07-20T11:31:56;658.80;;;609.17;;
19929;SDS011;10127;47.780;9.606;2023-07-20T11:34:24;587.50;;;544.38;;
19929;SDS011;10127;47.780;9.606;2023-07-20T11:36:50;871.50;;;801.43;;
19929;SDS011;10127;47.780;9.606;2023-07-20T11:39:17;609.58;;;565.35;;
19929;SDS011;10127;47.780;9.606;2023-07-20T11:41:50;619.42;;;574.70;;
19929;SDS011;10127;47.780;9.606;2023-07-20T11:44:18;522.22;;;486.52;;
19929;SDS011;10127;47.780;9.606;2023-07-20T11:46:45;458.33;;;425.80;;
19929;SDS011;10127;47.780;9.606;2023-07-20T11:49:11;614.30;;;570.60;;
19929;SDS011;10127;47.780;9.606;2023-07-20T11:51:38;475.17;;;441.83;;
19929;SDS011;10127;47.780;9.606;2023-07-20T11:54:06;541.22;;;503.85;;
19929;SDS011;10127;47.780;9.606;2023-07-20T11:56:34;497.02;;;458.27;;
19929;SDS011;10127;47.780;9.606;2023-07-20T11:59:00;525.58;;;485.52;;
19929;SDS011;10127;47.780;9.606;2023-07-20T12:01:28;547.85;;;506.75;;
19929;SDS011;10127;47.780;9.606;2023-07-20T12:04:00;599.63;;;555.67;;
19929;SDS011;10127;47.780;9.606;2023-07-20T12:06:28;547.53;;;508.90;;
19929;SDS011;10127;47.780;9.606;2023-07-20T12:08:55;591.63;;;548.60;;
19929;SDS011;10127;47.780;9.606;2023-07-20T12:11:34;518.33;;;482.15;;
19929;SDS011;10127;47.780;9.606;2023-07-20T12:14:08;514.13;;;479.63;;
19929;SDS011;10127;47.780;9.606;2023-07-20T12:16:35;509.98;;;475.63;;
19929;SDS011;10127;47.780;9.606;2023-07-20T12:19:03;545.33;;;506.90;;
19929;SDS011;10127;47.780;9.606;2023-07-20T12:21:34;425.27;;;394.85;;
19929;SDS011;10127;47.780;9.606;2023-07-20T12:24:04;531.22;;;492.50;;
19929;SDS011;10127;47.780;9.606;2023-07-20T12:26:30;324.85;;;303.90;;
19929;SDS011;10127;47.780;9.606;2023-07-20T12:28:56;396.80;;;369.83;;
19929;SDS011;10127;47.780;9.606;2023-07-20T12:31:22;566.60;;;527.93;;
19929;SDS011;10127;47.780;9.606;2023-07-20T12:33:50;432.38;;;402.67;;
19929;SDS011;10127;47.780;9.606;2023-07-20T12:36:17;483.23;;;450.70;;
19929;SDS011;10127;47.780;9.606;2023-07-20T12:38:43;532.97;;;496.33;;
19929;SDS011;10127;47.780;9.606;2023-07-20T12:41:09;433.90;;;403.17;;
19929;SDS011;10127;47.780;9.606;2023-07-20T12:43:39;396.83;;;370.83;;
19929;SDS011;10127;47.780;9.606;2023-07-20T12:46:09;483.27;;;450.77;;
19929;SDS011;10127;47.780;9.606;2023-07-20T12:48:39;381.20;;;354.23;;
19929;SDS011;10127;47.780;9.606;2023-07-20T12:51:12;457.25;;;426.40;;
19929;SDS011;10127;47.780;9.606;2023-07-20T12:53:38;364.73;;;340.55;;
19929;SDS011;10127;47.780;9.606;2023-07-20T12:56:04;425.25;;;398.13;;
19929;SDS011;10127;47.780;9.606;2023-07-20T12:58:30;552.95;;;516.30;;
19929;SDS011;10127;47.780;9.606;2023-07-20T13:00:56;436.23;;;407.30;;
19929;SDS011;10127;47.780;9.606;2023-07-20T13:03:21;338.38;;;315.15;;
19929;SDS011;10127;47.780;9.606;2023-07-20T13:05:47;322.83;;;302.05;;
19929;SDS011;10127;47.780;9.606;2023-07-20T13:08:13;418.92;;;389.48;;
19929;SDS011;10127;47.780;9.606;2023-07-20T13:10:40;389.55;;;362.40;;
19929;SDS011;10127;47.780;9.606;2023-07-20T13:13:06;429.02;;;400.98;;
19929;SDS011;10127;47.780;9.606;2023-07-20T13:15:32;334.27;;;310.75;;
19929;SDS011;10127;47.780;9.606;2023-07-20T13:18:05;390.52;;;365.58;;
19929;SDS011;10127;47.780;9.606;2023-07-20T13:20:31;399.15;;;371.05;;
19929;SDS011;10127;47.780;9.606;2023-07-20T13:22:57;357.60;;;332.52;;
19929;SDS011;10127;47.780;9.606;2023-07-20T13:25:22;356.55;;;331.70;;
19929;SDS011;10127;47.780;9.606;2023-07-20T13:27:48;236.30;;;220.70;;
19929;SDS011;10127;47.780;9.606;2023-07-20T13:30:14;257.15;;;240.88;;
19929;SDS011;10127;47.780;9.606;2023-07-20T13:32:44;319.67;;;299.10;;
19929;SDS011;10127;47.780;9.606;2023-07-20T13:35:11;351.38;;;327.10;;
19929;SDS011;10127;47.780;9.606;2023-07-20T13:37:37;517.10;;;480.67;;
19929;SDS011;10127;47.780;9.606;2023-07-20T13:40:03;365.50;;;339.08;;
19929;SDS011;10127;47.780;9.606;2023-07-20T13:42:30;369.25;;;344.83;;
19929;SDS011;10127;47.780;9.606;2023-07-20T13:44:56;378.23;;;353.33;;
19929;SDS011;10127;47.780;9.606;2023-07-20T13:47:22;264.25;;;245.43;;
19929;SDS011;10127;47.780;9.606;2023-07-20T13:49:47;469.38;;;436.73;;
19929;SDS011;10127;47.780;9.606;2023-07-20T13:52:13;511.85;;;474.50;;
19929;SDS011;10127;47.780;9.606;2023-07-20T13:54:39;427.67;;;396.83;;
19929;SDS011;10127;47.780;9.606;2023-07-20T13:57:05;541.53;;;500.67;;
19929;SDS011;10127;47.780;9.606;2023-07-20T13:59:30;513.85;;;475.80;;
19929;SDS011;10127;47.780;9.606;2023-07-20T14:01:56;468.88;;;434.27;;
19929;SDS011;10127;47.780;9.606;2023-07-20T14:04:22;467.77;;;432.17;;
19929;SDS011;10127;47.780;9.606;2023-07-20T14:06:47;534.63;;;497.60;;
19929;SDS011;10127;47.780;9.606;2023-07-20T14:09:13;533.28;;;494.98;;
19929;SDS011;10127;47.780;9.606;2023-07-20T14:11:39;512.58;;;475.98;;
19929;SDS011;10127;47.780;9.606;2023-07-20T14:14:04;461.80;;;430.63;;